sensor_id;sensor_type;location;lat;lon;timestamp;temperature;humidity
29403;DHT22;16382;59.942;30.472;2023-03-23T00:01:32;6.70;99.90
29403;DHT22;16382;59.942;30.472;2023-03-23T00:04:04;6.70;99.90
29403;DHT22;16382;59.942;30.472;2023-03-23T00:06:32;6.80;99.90
29403;DHT22;16382;59.942;30.472;2023-03-23T00:09:00;6.80;99.90
29403;DHT22;16382;59.942;30.472;2023-03-23T00:11:30;6.80;99.90
29403;DHT22;16382;59.942;30.472;2023-03-23T00:14:00;6.80;99.90
29403;DHT22;16382;59.942;30.472;2023-03-23T00:16:30;6.90;99.90
29403;DHT22;16382;59.942;30.472;2023-03-23T00:19:00;6.80;99.90
29403;DHT22;16382;59.942;30.472;2023-03-23T00:21:32;6.80;99.90
29403;DHT22;16382;59.942;30.472;2023-03-23T00:24:02;6.80;99.90
29403;DHT22;16382;59.942;30.472;2023-03-23T00:26:32;6.80;99.90
29403;DHT22;16382;59.942;30.472;2023-03-23T00:29:01;6.80;99.90
29403;DHT22;16382;59.942;30.472;2023-03-23T00:31:30;6.80;99.90
29403;DHT22;16382;59.942;30.472;2023-03-23T00:33:59;6.70;99.90
29403;DHT22;16382;59.942;30.472;2023-03-23T00:36:32;6.70;99.90
29403;DHT22;16382;59.942;30.472;2023-03-23T00:39:03;6.60;99.90
29403;DHT22;16382;59.942;30.472;2023-03-23T00:41:30;6.60;99.90
29403;DHT22;16382;59.942;30.472;2023-03-23T00:43:59;6.60;99.90
29403;DHT22;16382;59.942;30.472;2023-03-23T00:46:28;6.50;99.90
29403;DHT22;16382;59.942;30.472;2023-03-23T00:48:55;6.50;99.90
29403;DHT22;16382;59.942;30.472;2023-03-23T00:51:25;6.50;99.90
29403;DHT22;16382;59.942;30.472;2023-03-23T00:53:54;6.60;99.90
29403;DHT22;16382;59.942;30.472;2023-03-23T00:56:21;6.60;99.90
29403;DHT22;16382;59.942;30.472;2023-03-23T00:58:49;6.60;99.90
29403;DHT22;16382;59.942;30.472;2023-03-23T01:01:19;6.60;99.90
29403;DHT22;16382;59.942;30.472;2023-03-23T01:03:46;6.60;99.90
29403;DHT22;16382;59.942;30.472;2023-03-23T01:06:15;6.60;99.90
29403;DHT22;16382;59.942;30.472;2023-03-23T01:08:43;6.60;99.90
29403;DHT22;16382;59.942;30.472;2023-03-23T01:11:16;6.60;99.90
29403;DHT22;16382;59.942;30.472;2023-03-23T01:13:43;6.60;99.90
29403;DHT22;16382;59.942;30.472;2023-03-23T01:16:12;6.50;99.90
29403;DHT22;16382;59.942;30.472;2023-03-23T01:18:40;6.50;99.90
29403;DHT22;16382;59.942;30.472;2023-03-23T01:21:10;6.50;99.90
29403;DHT22;16382;59.942;30.472;2023-03-23T01:23:39;6.60;99.90
29403;DHT22;16382;59.942;30.472;2023-03-23T01:26:10;6.60;99.90
29403;DHT22;16382;59.942;30.472;2023-03-23T01:28:40;6.50;99.90
29403;DHT22;16382;59.942;30.472;2023-03-23T01:31:10;6.60;99.90
29403;DHT22;16382;59.942;30.472;2023-03-23T01:33:39;6.50;99.90
29403;DHT22;16382;59.942;30.472;2023-03-23T01:36:11;6.60;99.90
29403;DHT22;16382;59.942;30.472;2023-03-23T01:38:42;6.60;99.90
29403;DHT22;16382;59.942;30.472;2023-03-23T01:41:11;6.60;99.90
29403;DHT22;16382;59.942;30.472;2023-03-23T01:43:56;6.60;99.90
29403;DHT22;16382;59.942;30.472;2023-03-23T01:46:27;6.60;99.90
29403;DHT22;16382;59.942;30.472;2023-03-23T01:48:59;6.60;99.90
29403;DHT22;16382;59.942;30.472;2023-03-23T01:51:34;6.60;99.90
29403;DHT22;16382;59.942;30.472;2023-03-23T01:54:05;6.60;99.90
29403;DHT22;16382;59.942;30.472;2023-03-23T01:56:39;6.70;99.90
29403;DHT22;16382;59.942;30.472;2023-03-23T01:59:13;6.60;99.90
29403;DHT22;16382;59.942;30.472;2023-03-23T02:01:47;6.60;99.90
29403;DHT22;16382;59.942;30.472;2023-03-23T02:04:16;6.70;99.90
29403;DHT22;16382;59.942;30.472;2023-03-23T02:06:44;6.70;99.90
29403;DHT22;16382;59.942;30.472;2023-03-23T02:09:18;6.70;99.90
29403;DHT22;16382;59.942;30.472;2023-03-23T02:11:48;6.70;99.90
29403;DHT22;16382;59.942;30.472;2023-03-23T02:14:19;6.70;99.90
29403;DHT22;16382;59.942;30.472;2023-03-23T02:16:51;6.70;99.90
29403;DHT22;16382;59.942;30.472;2023-03-23T02:19:43;6.70;99.90
29403;DHT22;16382;59.942;30.472;2023-03-23T02:22:47;6.60;99.90
29403;DHT22;16382;59.942;30.472;2023-03-23T02:25:38;6.60;99.90
29403;DHT22;16382;59.942;30.472;2023-03-23T02:28:31;6.60;99.90
29403;DHT22;16382;59.942;30.472;2023-03-23T02:31:22;6.50;99.90
29403;DHT22;16382;59.942;30.472;2023-03-23T02:34:10;6.50;99.90
29403;DHT22;16382;59.942;30.472;2023-03-23T02:36:46;6.50;99.90
29403;DHT22;16382;59.942;30.472;2023-03-23T02:39:19;6.50;99.90
29403;DHT22;16382;59.942;30.472;2023-03-23T02:41:52;6.60;99.90
29403;DHT22;16382;59.942;30.472;2023-03-23T02:44:23;6.50;99.90
29403;DHT22;16382;59.942;30.472;2023-03-23T02:46:54;6.50;99.90
29403;DHT22;16382;59.942;30.472;2023-03-23T02:49:25;6.60;99.90
29403;DHT22;16382;59.942;30.472;2023-03-23T02:51:56;6.60;99.90
29403;DHT22;16382;59.942;30.472;2023-03-23T02:54:26;6.60;99.90
29403;DHT22;16382;59.942;30.472;2023-03-23T02:56:56;6.60;99.90
29403;DHT22;16382;59.942;30.472;2023-03-23T02:59:28;6.60;99.90
29403;DHT22;16382;59.942;30.472;2023-03-23T03:01:59;6.60;99.90
29403;DHT22;16382;59.942;30.472;2023-03-23T03:04:31;6.60;99.90
29403;DHT22;16382;59.942;30.472;2023-03-23T03:07:10;6.60;99.90
29403;DHT22;16382;59.942;30.472;2023-03-23T03:09:53;6.70;99.90
29403;DHT22;16382;59.942;30.472;2023-03-23T03:12:30;6.70;99.90
29403;DHT22;16382;59.942;30.472;2023-03-23T03:15:09;6.70;99.90
29403;DHT22;16382;59.942;30.472;2023-03-23T03:17:46;6.70;99.90
29403;DHT22;16382;59.942;30.472;2023-03-23T03:20:22;6.70;99.90
29403;DHT22;16382;59.942;30.472;2023-03-23T03:22:53;6.70;99.90
29403;DHT22;16382;59.942;30.472;2023-03-23T03:25:21;6.70;99.90
29403;DHT22;16382;59.942;30.472;2023-03-23T03:27:52;6.70;99.90
29403;DHT22;16382;59.942;30.472;2023-03-23T03:30:36;6.70;99.90
29403;DHT22;16382;59.942;30.472;2023-03-23T03:33:07;6.60;99.90
29403;DHT22;16382;59.942;30.472;2023-03-23T03:35:38;6.60;99.90
29403;DHT22;16382;59.942;30.472;2023-03-23T03:38:09;6.60;99.90
29403;DHT22;16382;59.942;30.472;2023-03-23T03:40:38;6.60;99.90
29403;DHT22;16382;59.942;30.472;2023-03-23T03:43:06;6.60;99.90
29403;DHT22;16382;59.942;30.472;2023-03-23T03:45:34;6.70;99.90
29403;DHT22;16382;59.942;30.472;2023-03-23T03:48:01;6.70;99.90
29403;DHT22;16382;59.942;30.472;2023-03-23T03:50:30;6.70;99.90
29403;DHT22;16382;59.942;30.472;2023-03-23T03:52:59;6.70;99.90
29403;DHT22;16382;59.942;30.472;2023-03-23T03:55:27;6.70;99.90
29403;DHT22;16382;59.942;30.472;2023-03-23T03:57:55;6.70;99.90
29403;DHT22;16382;59.942;30.472;2023-03-23T04:00:50;6.80;99.90
29403;DHT22;16382;59.942;30.472;2023-03-23T04:03:24;6.80;99.90
29403;DHT22;16382;59.942;30.472;2023-03-23T04:06:03;6.80;99.90
29403;DHT22;16382;59.942;30.472;2023-03-23T04:08:35;6.80;99.90
29403;DHT22;16382;59.942;30.472;2023-03-23T04:11:04;6.80;99.90
29403;DHT22;16382;59.942;30.472;2023-03-23T04:13:32;6.90;99.90
29403;DHT22;16382;59.942;30.472;2023-03-23T04:16:00;6.90;99.90
29403;DHT22;16382;59.942;30.472;2023-03-23T04:18:28;6.90;99.90
29403;DHT22;16382;59.942;30.472;2023-03-23T04:21:00;6.90;99.90
29403;DHT22;16382;59.942;30.472;2023-03-23T04:23:30;6.90;99.90
29403;DHT22;16382;59.942;30.472;2023-03-23T04:26:03;6.90;99.90
29403;DHT22;16382;59.942;30.472;2023-03-23T04:28:37;7.00;99.90
29403;DHT22;16382;59.942;30.472;2023-03-23T04:31:40;7.00;99.90
29403;DHT22;16382;59.942;30.472;2023-03-23T04:34:29;7.00;99.90
29403;DHT22;16382;59.942;30.472;2023-03-23T04:36:59;7.00;99.90
29403;DHT22;16382;59.942;30.472;2023-03-23T04:39:28;7.10;99.90
29403;DHT22;16382;59.942;30.472;2023-03-23T04:42:03;7.10;99.90
29403;DHT22;16382;59.942;30.472;2023-03-23T04:44:55;7.10;99.90
29403;DHT22;16382;59.942;30.472;2023-03-23T04:47:41;7.10;99.90
29403;DHT22;16382;59.942;30.472;2023-03-23T04:50:33;7.20;99.90
29403;DHT22;16382;59.942;30.472;2023-03-23T04:53:13;7.20;99.90
29403;DHT22;16382;59.942;30.472;2023-03-23T04:55:47;7.20;99.90
29403;DHT22;16382;59.942;30.472;2023-03-23T04:58:49;7.30;99.90
29403;DHT22;16382;59.942;30.472;2023-03-23T05:01:55;7.20;99.90
29403;DHT22;16382;59.942;30.472;2023-03-23T05:04:23;7.30;99.90
29403;DHT22;16382;59.942;30.472;2023-03-23T05:07:10;7.20;99.90
29403;DHT22;16382;59.942;30.472;2023-03-23T05:09:47;7.30;99.90
29403;DHT22;16382;59.942;30.472;2023-03-23T05:12:19;7.30;99.90
29403;DHT22;16382;59.942;30.472;2023-03-23T05:14:54;7.30;99.90
29403;DHT22;16382;59.942;30.472;2023-03-23T05:17:25;7.30;99.90
29403;DHT22;16382;59.942;30.472;2023-03-23T05:19:56;7.30;99.90
29403;DHT22;16382;59.942;30.472;2023-03-23T05:22:41;7.20;99.90
29403;DHT22;16382;59.942;30.472;2023-03-23T05:25:11;7.30;99.90
29403;DHT22;16382;59.942;30.472;2023-03-23T05:27:43;7.20;99.90
29403;DHT22;16382;59.942;30.472;2023-03-23T05:30:24;7.10;99.90
29403;DHT22;16382;59.942;30.472;2023-03-23T05:32:55;7.10;99.90
29403;DHT22;16382;59.942;30.472;2023-03-23T05:35:41;7.00;99.90
29403;DHT22;16382;59.942;30.472;2023-03-23T05:38:09;7.10;99.90
29403;DHT22;16382;59.942;30.472;2023-03-23T05:40:37;7.10;99.90
29403;DHT22;16382;59.942;30.472;2023-03-23T05:43:13;7.10;99.90
29403;DHT22;16382;59.942;30.472;2023-03-23T05:46:00;7.20;99.90
29403;DHT22;16382;59.942;30.472;2023-03-23T05:48:30;7.20;99.90
29403;DHT22;16382;59.942;30.472;2023-03-23T05:50:59;7.30;99.90
29403;DHT22;16382;59.942;30.472;2023-03-23T05:53:28;7.30;99.90
29403;DHT22;16382;59.942;30.472;2023-03-23T05:55:59;7.40;99.90
29403;DHT22;16382;59.942;30.472;2023-03-23T05:58:59;7.40;99.90
29403;DHT22;16382;59.942;30.472;2023-03-23T06:01:31;7.40;99.90
29403;DHT22;16382;59.942;30.472;2023-03-23T06:03:59;7.50;99.90
29403;DHT22;16382;59.942;30.472;2023-03-23T06:06:46;7.50;99.90
29403;DHT22;16382;59.942;30.472;2023-03-23T06:09:14;7.50;99.90
29403;DHT22;16382;59.942;30.472;2023-03-23T06:12:03;7.60;99.90
29403;DHT22;16382;59.942;30.472;2023-03-23T06:14:39;7.60;99.90
29403;DHT22;16382;59.942;30.472;2023-03-23T06:17:08;7.60;99.90
29403;DHT22;16382;59.942;30.472;2023-03-23T06:19:38;7.60;99.90
29403;DHT22;16382;59.942;30.472;2023-03-23T06:22:12;7.70;99.90
29403;DHT22;16382;59.942;30.472;2023-03-23T06:24:43;7.70;99.90
29403;DHT22;16382;59.942;30.472;2023-03-23T06:27:13;7.80;99.90
29403;DHT22;16382;59.942;30.472;2023-03-23T06:29:43;7.80;99.90
29403;DHT22;16382;59.942;30.472;2023-03-23T06:32:13;7.80;99.90
29403;DHT22;16382;59.942;30.472;2023-03-23T06:34:42;7.90;99.90
29403;DHT22;16382;59.942;30.472;2023-03-23T06:37:31;7.90;99.90
29403;DHT22;16382;59.942;30.472;2023-03-23T06:40:09;7.90;99.90
29403;DHT22;16382;59.942;30.472;2023-03-23T06:42:39;8.00;99.90
29403;DHT22;16382;59.942;30.472;2023-03-23T06:45:25;8.00;99.90
29403;DHT22;16382;59.942;30.472;2023-03-23T06:48:13;8.00;99.90
29403;DHT22;16382;59.942;30.472;2023-03-23T06:50:42;8.10;99.90
29403;DHT22;16382;59.942;30.472;2023-03-23T06:53:12;8.20;99.90
29403;DHT22;16382;59.942;30.472;2023-03-23T06:55:41;8.30;99.90
29403;DHT22;16382;59.942;30.472;2023-03-23T06:58:09;8.40;99.90
29403;DHT22;16382;59.942;30.472;2023-03-23T07:00:37;8.50;99.90
29403;DHT22;16382;59.942;30.472;2023-03-23T07:03:08;8.50;99.90
29403;DHT22;16382;59.942;30.472;2023-03-23T07:05:39;8.50;99.90
29403;DHT22;16382;59.942;30.472;2023-03-23T07:08:09;8.60;99.90
29403;DHT22;16382;59.942;30.472;2023-03-23T07:10:51;8.60;99.90
29403;DHT22;16382;59.942;30.472;2023-03-23T07:13:23;8.70;99.90
29403;DHT22;16382;59.942;30.472;2023-03-23T07:15:56;8.70;99.90
29403;DHT22;16382;59.942;30.472;2023-03-23T07:18:24;8.60;99.90
29403;DHT22;16382;59.942;30.472;2023-03-23T07:20:55;8.60;99.90
29403;DHT22;16382;59.942;30.472;2023-03-23T07:23:29;8.60;99.90
29403;DHT22;16382;59.942;30.472;2023-03-23T07:26:05;8.80;99.90
29403;DHT22;16382;59.942;30.472;2023-03-23T07:28:47;9.10;99.90
29403;DHT22;16382;59.942;30.472;2023-03-23T07:31:23;9.20;99.90
29403;DHT22;16382;59.942;30.472;2023-03-23T07:33:52;9.30;99.90
29403;DHT22;16382;59.942;30.472;2023-03-23T07:36:25;9.30;99.90
29403;DHT22;16382;59.942;30.472;2023-03-23T07:38:53;9.70;99.90
29403;DHT22;16382;59.942;30.472;2023-03-23T07:41:21;10.10;99.90
29403;DHT22;16382;59.942;30.472;2023-03-23T07:43:51;10.40;99.90
29403;DHT22;16382;59.942;30.472;2023-03-23T07:46:22;10.40;99.90
29403;DHT22;16382;59.942;30.472;2023-03-23T07:48:57;10.20;99.90
29403;DHT22;16382;59.942;30.472;2023-03-23T07:51:35;10.10;99.90
29403;DHT22;16382;59.942;30.472;2023-03-23T07:54:05;10.00;99.90
29403;DHT22;16382;59.942;30.472;2023-03-23T07:56:52;9.90;99.90
29403;DHT22;16382;59.942;30.472;2023-03-23T07:59:29;10.10;99.90
29403;DHT22;16382;59.942;30.472;2023-03-23T08:01:59;10.80;99.90
29403;DHT22;16382;59.942;30.472;2023-03-23T08:04:45;11.00;99.90
29403;DHT22;16382;59.942;30.472;2023-03-23T08:07:15;11.40;99.90
29403;DHT22;16382;59.942;30.472;2023-03-23T08:09:59;11.40;99.90
29403;DHT22;16382;59.942;30.472;2023-03-23T08:12:45;11.20;99.90
29403;DHT22;16382;59.942;30.472;2023-03-23T08:15:36;11.00;99.90
29403;DHT22;16382;59.942;30.472;2023-03-23T08:18:25;11.10;99.90
29403;DHT22;16382;59.942;30.472;2023-03-23T08:21:18;11.20;99.90
29403;DHT22;16382;59.942;30.472;2023-03-23T08:24:06;11.10;99.90
29403;DHT22;16382;59.942;30.472;2023-03-23T08:26:51;11.30;99.90
29403;DHT22;16382;59.942;30.472;2023-03-23T08:29:44;11.60;99.90
29403;DHT22;16382;59.942;30.472;2023-03-23T08:32:36;11.80;99.90
29403;DHT22;16382;59.942;30.472;2023-03-23T08:35:13;11.50;99.90
29403;DHT22;16382;59.942;30.472;2023-03-23T08:37:55;11.60;99.90
29403;DHT22;16382;59.942;30.472;2023-03-23T08:40:47;11.80;99.90
29403;DHT22;16382;59.942;30.472;2023-03-23T08:43:21;12.40;99.90
29403;DHT22;16382;59.942;30.472;2023-03-23T08:46:13;12.70;99.90
29403;DHT22;16382;59.942;30.472;2023-03-23T08:49:01;13.10;99.90
29403;DHT22;16382;59.942;30.472;2023-03-23T08:54:46;15.40;99.90
29403;DHT22;16382;59.942;30.472;2023-03-23T08:57:32;14.70;99.90
29403;DHT22;16382;59.942;30.472;2023-03-23T09:00:16;14.20;99.90
29403;DHT22;16382;59.942;30.472;2023-03-23T09:03:05;13.80;99.90
29403;DHT22;16382;59.942;30.472;2023-03-23T09:05:48;13.20;99.90
29403;DHT22;16382;59.942;30.472;2023-03-23T09:08:16;12.70;99.90
29403;DHT22;16382;59.942;30.472;2023-03-23T09:10:47;12.30;99.90
29403;DHT22;16382;59.942;30.472;2023-03-23T09:13:17;11.90;99.90
29403;DHT22;16382;59.942;30.472;2023-03-23T09:15:46;11.60;99.90
29403;DHT22;16382;59.942;30.472;2023-03-23T09:18:13;11.60;99.90
29403;DHT22;16382;59.942;30.472;2023-03-23T09:20:41;11.50;99.90
29403;DHT22;16382;59.942;30.472;2023-03-23T09:23:09;11.40;99.90
29403;DHT22;16382;59.942;30.472;2023-03-23T09:25:46;11.30;99.90
29403;DHT22;16382;59.942;30.472;2023-03-23T09:28:18;11.20;99.90
29403;DHT22;16382;59.942;30.472;2023-03-23T09:30:49;12.50;99.90
29403;DHT22;16382;59.942;30.472;2023-03-23T09:33:17;13.40;99.90
29403;DHT22;16382;59.942;30.472;2023-03-23T09:35:45;13.40;99.90
29403;DHT22;16382;59.942;30.472;2023-03-23T09:38:12;13.80;99.90
29403;DHT22;16382;59.942;30.472;2023-03-23T09:40:46;13.60;99.90
29403;DHT22;16382;59.942;30.472;2023-03-23T09:46:38;14.10;99.90
29403;DHT22;16382;59.942;30.472;2023-03-23T09:49:17;14.80;99.90
29403;DHT22;16382;59.942;30.472;2023-03-23T09:51:49;14.40;99.90
29403;DHT22;16382;59.942;30.472;2023-03-23T09:54:22;14.10;99.90
29403;DHT22;16382;59.942;30.472;2023-03-23T09:56:53;14.20;99.90
29403;DHT22;16382;59.942;30.472;2023-03-23T09:59:27;13.70;99.90
29403;DHT22;16382;59.942;30.472;2023-03-23T10:02:02;13.30;99.90
29403;DHT22;16382;59.942;30.472;2023-03-23T10:04:43;13.80;99.90
29403;DHT22;16382;59.942;30.472;2023-03-23T10:07:14;14.40;99.90
29403;DHT22;16382;59.942;30.472;2023-03-23T10:09:45;14.00;99.90
29403;DHT22;16382;59.942;30.472;2023-03-23T10:12:23;14.30;99.90
29403;DHT22;16382;59.942;30.472;2023-03-23T10:15:10;14.30;99.90
29403;DHT22;16382;59.942;30.472;2023-03-23T10:17:46;14.30;99.90
29403;DHT22;16382;59.942;30.472;2023-03-23T10:20:28;13.90;99.90
29403;DHT22;16382;59.942;30.472;2023-03-23T10:23:09;13.60;99.90
29403;DHT22;16382;59.942;30.472;2023-03-23T10:25:54;13.30;99.90
29403;DHT22;16382;59.942;30.472;2023-03-23T10:28:35;12.90;99.90
29403;DHT22;16382;59.942;30.472;2023-03-23T10:31:08;12.80;99.90
29403;DHT22;16382;59.942;30.472;2023-03-23T10:33:40;13.00;99.90
29403;DHT22;16382;59.942;30.472;2023-03-23T10:36:12;13.20;99.90
29403;DHT22;16382;59.942;30.472;2023-03-23T10:38:44;13.50;99.90
29403;DHT22;16382;59.942;30.472;2023-03-23T10:41:16;14.60;99.90
29403;DHT22;16382;59.942;30.472;2023-03-23T10:43:46;15.50;99.90
29403;DHT22;16382;59.942;30.472;2023-03-23T10:46:31;15.70;99.90
29403;DHT22;16382;59.942;30.472;2023-03-23T10:49:06;16.00;99.90
29403;DHT22;16382;59.942;30.472;2023-03-23T10:51:39;16.80;98.20
29403;DHT22;16382;59.942;30.472;2023-03-23T10:54:11;17.70;94.40
29403;DHT22;16382;59.942;30.472;2023-03-23T10:56:41;17.80;91.30
29403;DHT22;16382;59.942;30.472;2023-03-23T10:59:15;17.00;91.10
29403;DHT22;16382;59.942;30.472;2023-03-23T11:01:52;16.30;92.50
29403;DHT22;16382;59.942;30.472;2023-03-23T11:04:21;15.70;92.60
29403;DHT22;16382;59.942;30.472;2023-03-23T11:06:53;15.30;94.30
29403;DHT22;16382;59.942;30.472;2023-03-23T11:09:34;15.50;93.50
29403;DHT22;16382;59.942;30.472;2023-03-23T11:12:03;16.00;92.50
29403;DHT22;16382;59.942;30.472;2023-03-23T11:14:33;16.20;92.20
29403;DHT22;16382;59.942;30.472;2023-03-23T11:17:21;15.80;92.30
29403;DHT22;16382;59.942;30.472;2023-03-23T11:19:52;15.20;93.80
29403;DHT22;16382;59.942;30.472;2023-03-23T11:22:25;15.20;95.20
29403;DHT22;16382;59.942;30.472;2023-03-23T11:24:54;16.20;93.90
29403;DHT22;16382;59.942;30.472;2023-03-23T11:27:25;16.60;91.30
29403;DHT22;16382;59.942;30.472;2023-03-23T11:29:55;16.90;90.40
29403;DHT22;16382;59.942;30.472;2023-03-23T11:32:29;16.70;89.90
29403;DHT22;16382;59.942;30.472;2023-03-23T11:34:58;16.60;90.50
29403;DHT22;16382;59.942;30.472;2023-03-23T11:37:31;16.20;90.50
29403;DHT22;16382;59.942;30.472;2023-03-23T11:40:01;15.70;91.60
29403;DHT22;16382;59.942;30.472;2023-03-23T11:42:43;15.70;92.30
29403;DHT22;16382;59.942;30.472;2023-03-23T11:45:19;15.70;91.90
29403;DHT22;16382;59.942;30.472;2023-03-23T11:47:59;15.40;92.50
29403;DHT22;16382;59.942;30.472;2023-03-23T11:50:38;15.00;93.00
29403;DHT22;16382;59.942;30.472;2023-03-23T11:53:17;14.70;93.70
29403;DHT22;16382;59.942;30.472;2023-03-23T11:55:57;14.50;94.50
29403;DHT22;16382;59.942;30.472;2023-03-23T11:58:39;14.20;95.70
29403;DHT22;16382;59.942;30.472;2023-03-23T12:01:18;14.10;96.70
29403;DHT22;16382;59.942;30.472;2023-03-23T12:04:05;14.40;95.30
29403;DHT22;16382;59.942;30.472;2023-03-23T12:10:04;15.20;93.20
29403;DHT22;16382;59.942;30.472;2023-03-23T12:12:48;15.30;92.90
29403;DHT22;16382;59.942;30.472;2023-03-23T12:15:24;15.00;93.40
29403;DHT22;16382;59.942;30.472;2023-03-23T12:18:02;14.70;93.80
29403;DHT22;16382;59.942;30.472;2023-03-23T12:20:49;14.60;94.50
29403;DHT22;16382;59.942;30.472;2023-03-23T12:23:26;14.60;94.20
29403;DHT22;16382;59.942;30.472;2023-03-23T12:26:14;14.70;94.70
29403;DHT22;16382;59.942;30.472;2023-03-23T12:29:04;14.70;93.40
29403;DHT22;16382;59.942;30.472;2023-03-23T12:32:00;14.80;92.90
29403;DHT22;16382;59.942;30.472;2023-03-23T12:34:45;14.50;92.80
29403;DHT22;16382;59.942;30.472;2023-03-23T12:37:29;14.90;92.60
29403;DHT22;16382;59.942;30.472;2023-03-23T12:40:29;15.00;91.20
29403;DHT22;16382;59.942;30.472;2023-03-23T12:43:05;14.40;92.10
29403;DHT22;16382;59.942;30.472;2023-03-23T12:45:53;13.90;93.20
29403;DHT22;16382;59.942;30.472;2023-03-23T12:48:28;13.50;94.20
29403;DHT22;16382;59.942;30.472;2023-03-23T12:51:07;13.20;95.00
29403;DHT22;16382;59.942;30.472;2023-03-23T12:53:49;12.90;96.50
29403;DHT22;16382;59.942;30.472;2023-03-23T12:56:24;12.90;97.00
29403;DHT22;16382;59.942;30.472;2023-03-23T12:59:01;12.90;97.40
29403;DHT22;16382;59.942;30.472;2023-03-23T13:01:39;13.30;97.10
29403;DHT22;16382;59.942;30.472;2023-03-23T13:04:13;13.70;95.90
29403;DHT22;16382;59.942;30.472;2023-03-23T13:06:45;13.70;95.60
29403;DHT22;16382;59.942;30.472;2023-03-23T13:09:20;13.50;95.50
29403;DHT22;16382;59.942;30.472;2023-03-23T13:11:50;13.40;96.00
29403;DHT22;16382;59.942;30.472;2023-03-23T13:14:29;13.30;96.70
29403;DHT22;16382;59.942;30.472;2023-03-23T13:17:10;13.10;97.50
29403;DHT22;16382;59.942;30.472;2023-03-23T13:20:25;13.20;97.50
29403;DHT22;16382;59.942;30.472;2023-03-23T13:23:02;13.30;96.80
29403;DHT22;16382;59.942;30.472;2023-03-23T13:25:52;13.60;95.80
29403;DHT22;16382;59.942;30.472;2023-03-23T13:28:25;14.00;94.40
29403;DHT22;16382;59.942;30.472;2023-03-23T13:30:59;14.20;93.70
29403;DHT22;16382;59.942;30.472;2023-03-23T13:33:33;14.20;93.40
29403;DHT22;16382;59.942;30.472;2023-03-23T13:36:09;14.30;92.70
29403;DHT22;16382;59.942;30.472;2023-03-23T13:38:45;14.20;92.80
29403;DHT22;16382;59.942;30.472;2023-03-23T13:41:17;13.80;93.70
29403;DHT22;16382;59.942;30.472;2023-03-23T13:43:47;13.50;93.30
29403;DHT22;16382;59.942;30.472;2023-03-23T13:46:28;13.00;94.80
29403;DHT22;16382;59.942;30.472;2023-03-23T13:49:15;12.80;96.10
29403;DHT22;16382;59.942;30.472;2023-03-23T13:52:00;12.60;96.70
29403;DHT22;16382;59.942;30.472;2023-03-23T13:54:40;12.40;96.70
29403;DHT22;16382;59.942;30.472;2023-03-23T13:57:26;12.30;96.90
29403;DHT22;16382;59.942;30.472;2023-03-23T14:00:24;12.30;97.20
29403;DHT22;16382;59.942;30.472;2023-03-23T14:03:14;12.30;97.20
29403;DHT22;16382;59.942;30.472;2023-03-23T14:05:45;12.40;97.80
29403;DHT22;16382;59.942;30.472;2023-03-23T14:08:35;12.70;97.70
29403;DHT22;16382;59.942;30.472;2023-03-23T14:11:15;13.50;96.40
29403;DHT22;16382;59.942;30.472;2023-03-23T14:14:01;14.60;94.20
29403;DHT22;16382;59.942;30.472;2023-03-23T14:16:37;16.10;90.70
29403;DHT22;16382;59.942;30.472;2023-03-23T14:19:17;17.30;85.20
29403;DHT22;16382;59.942;30.472;2023-03-23T14:21:52;18.40;79.30
29403;DHT22;16382;59.942;30.472;2023-03-23T14:24:22;18.60;75.50
29403;DHT22;16382;59.942;30.472;2023-03-23T14:26:52;17.80;76.50
29403;DHT22;16382;59.942;30.472;2023-03-23T14:29:29;17.00;78.70
29403;DHT22;16382;59.942;30.472;2023-03-23T14:31:58;16.40;81.90
29403;DHT22;16382;59.942;30.472;2023-03-23T14:34:29;15.80;83.80
29403;DHT22;16382;59.942;30.472;2023-03-23T14:39:28;14.50;89.90
29403;DHT22;16382;59.942;30.472;2023-03-23T14:42:02;13.70;92.40
29403;DHT22;16382;59.942;30.472;2023-03-23T14:44:35;13.30;94.20
29403;DHT22;16382;59.942;30.472;2023-03-23T14:47:13;13.40;95.70
29403;DHT22;16382;59.942;30.472;2023-03-23T14:49:44;14.10;94.60
29403;DHT22;16382;59.942;30.472;2023-03-23T14:52:14;14.30;94.10
29403;DHT22;16382;59.942;30.472;2023-03-23T14:54:45;14.00;94.40
29403;DHT22;16382;59.942;30.472;2023-03-23T14:57:14;13.60;95.50
29403;DHT22;16382;59.942;30.472;2023-03-23T14:59:47;13.10;97.30
29403;DHT22;16382;59.942;30.472;2023-03-23T15:02:19;12.70;98.30
29403;DHT22;16382;59.942;30.472;2023-03-23T15:04:56;12.30;99.90
29403;DHT22;16382;59.942;30.472;2023-03-23T15:07:30;11.90;99.90
29403;DHT22;16382;59.942;30.472;2023-03-23T15:09:59;11.70;99.90
29403;DHT22;16382;59.942;30.472;2023-03-23T15:12:31;11.50;99.90
29403;DHT22;16382;59.942;30.472;2023-03-23T15:15:03;11.40;99.90
29403;DHT22;16382;59.942;30.472;2023-03-23T15:17:35;11.20;99.90
29403;DHT22;16382;59.942;30.472;2023-03-23T15:20:08;11.10;99.90
29403;DHT22;16382;59.942;30.472;2023-03-23T15:22:44;10.90;99.90
29403;DHT22;16382;59.942;30.472;2023-03-23T15:25:18;10.80;99.90
29403;DHT22;16382;59.942;30.472;2023-03-23T15:27:51;10.60;99.90
29403;DHT22;16382;59.942;30.472;2023-03-23T15:30:32;10.50;99.90
29403;DHT22;16382;59.942;30.472;2023-03-23T15:33:03;10.40;99.90
29403;DHT22;16382;59.942;30.472;2023-03-23T15:35:34;10.30;99.90
29403;DHT22;16382;59.942;30.472;2023-03-23T15:38:05;10.20;99.90
29403;DHT22;16382;59.942;30.472;2023-03-23T15:40:39;10.10;99.90
29403;DHT22;16382;59.942;30.472;2023-03-23T15:43:16;10.00;99.90
29403;DHT22;16382;59.942;30.472;2023-03-23T15:45:56;10.00;99.90
29403;DHT22;16382;59.942;30.472;2023-03-23T15:48:29;9.90;99.90
29403;DHT22;16382;59.942;30.472;2023-03-23T15:50:58;9.90;99.90
29403;DHT22;16382;59.942;30.472;2023-03-23T15:53:31;9.80;99.90
29403;DHT22;16382;59.942;30.472;2023-03-23T15:56:02;9.70;99.90
29403;DHT22;16382;59.942;30.472;2023-03-23T15:58:35;9.70;99.90
29403;DHT22;16382;59.942;30.472;2023-03-23T16:01:10;9.60;99.90
29403;DHT22;16382;59.942;30.472;2023-03-23T16:03:42;9.60;99.90
29403;DHT22;16382;59.942;30.472;2023-03-23T16:06:12;9.50;99.90
29403;DHT22;16382;59.942;30.472;2023-03-23T16:08:41;9.50;99.90
29403;DHT22;16382;59.942;30.472;2023-03-23T16:11:14;9.40;99.90
29403;DHT22;16382;59.942;30.472;2023-03-23T16:13:43;9.30;99.90
29403;DHT22;16382;59.942;30.472;2023-03-23T16:16:14;9.30;99.90
29403;DHT22;16382;59.942;30.472;2023-03-23T16:18:43;9.20;99.90
29403;DHT22;16382;59.942;30.472;2023-03-23T16:21:17;9.20;99.90
29403;DHT22;16382;59.942;30.472;2023-03-23T16:23:45;9.10;99.90
29403;DHT22;16382;59.942;30.472;2023-03-23T16:26:13;9.00;99.90